createdAt,value
2023-03-06T00:00:07.785Z,-6.17
2023-03-06T00:00:43.836Z,-6.16
2023-03-06T00:01:07.812Z,-6.17
2023-03-06T00:01:21.074Z,-6.17
2023-03-06T00:01:33.733Z,-6.15
2023-03-06T00:01:48.898Z,-6.15
2023-03-06T00:02:01.614Z,-6.14
2023-03-06T00:02:15.366Z,-6.14
2023-03-06T00:02:28.107Z,-6.14
2023-03-06T00:02:40.780Z,-6.14
2023-03-06T00:02:53.592Z,-6.10
2023-03-06T00:03:06.604Z,-6.10
2023-03-06T00:03:19.914Z,-6.09
2023-03-06T00:03:33.845Z,-6.08
2023-03-06T00:03:46.635Z,-6.07
2023-03-06T00:03:59.289Z,-6.07
2023-03-06T00:04:12.017Z,-6.06
2023-03-06T00:04:24.628Z,-6.05
2023-03-06T00:04:38.629Z,-6.05
2023-03-06T00:04:51.281Z,-6.06
2023-03-06T00:05:05.081Z,-6.04
2023-03-06T00:05:18.225Z,-6.04
2023-03-06T00:05:31.066Z,-6.03
2023-03-06T00:05:44.000Z,-6.03
2023-03-06T00:05:57.773Z,-6.02
2023-03-06T00:06:10.609Z,-6.00
2023-03-06T00:06:23.675Z,-6.01
2023-03-06T00:06:36.286Z,-6.00
2023-03-06T00:06:50.033Z,-6.00
2023-03-06T00:07:02.650Z,-5.99
2023-03-06T00:07:15.341Z,-5.99
2023-03-06T00:07:27.924Z,-5.99
2023-03-06T00:07:40.894Z,-5.98
2023-03-06T00:07:53.495Z,-5.97
2023-03-06T00:08:07.772Z,-5.97
2023-03-06T00:08:20.375Z,-5.97
2023-03-06T00:08:32.980Z,-5.97
2023-03-06T00:08:45.895Z,-5.96
2023-03-06T00:08:58.488Z,-5.96
2023-03-06T00:09:11.090Z,-5.95
2023-03-06T00:09:23.701Z,-5.96
2023-03-06T00:09:37.291Z,-5.95
2023-03-06T00:09:49.937Z,-5.95
2023-03-06T00:10:02.534Z,-5.96
2023-03-06T00:10:17.788Z,-5.95
2023-03-06T00:10:32.014Z,-5.95
2023-03-06T00:10:45.985Z,-5.94
2023-03-06T00:10:59.507Z,-5.94
2023-03-06T00:11:14.827Z,-5.93
2023-03-06T00:11:27.434Z,-5.94
2023-03-06T00:11:40.033Z,-5.94
2023-03-06T00:11:52.614Z,-5.94
2023-03-06T00:12:05.573Z,-5.93
2023-03-06T00:12:18.167Z,-5.94
2023-03-06T00:12:31.863Z,-5.93
2023-03-06T00:12:44.722Z,-5.94
2023-03-06T00:12:59.775Z,-5.94
2023-03-06T00:13:14.226Z,-5.94
2023-03-06T00:13:30.203Z,-5.94
2023-03-06T00:13:42.874Z,-5.93
2023-03-06T00:13:57.545Z,-5.93
2023-03-06T00:14:11.144Z,-5.92
2023-03-06T00:14:23.880Z,-5.93
2023-03-06T00:14:36.494Z,-5.91
2023-03-06T00:14:49.110Z,-5.91
2023-03-06T00:15:02.375Z,-5.90
2023-03-06T00:15:16.448Z,-5.90
2023-03-06T00:15:29.554Z,-5.89
2023-03-06T00:15:43.386Z,-5.89
2023-03-06T00:15:59.355Z,-5.87
2023-03-06T00:16:12.353Z,-5.87
2023-03-06T00:16:25.429Z,-5.86
2023-03-06T00:16:38.130Z,-5.86
2023-03-06T00:16:54.409Z,-5.86
2023-03-06T00:17:08.000Z,-5.84
2023-03-06T00:17:20.618Z,-5.84
2023-03-06T00:17:33.347Z,-5.84
2023-03-06T00:17:45.938Z,-5.83
2023-03-06T00:17:58.745Z,-5.82
2023-03-06T00:18:12.776Z,-5.81
2023-03-06T00:18:25.434Z,-5.82
2023-03-06T00:18:38.009Z,-5.79
2023-03-06T00:18:50.702Z,-5.81
2023-03-06T00:19:03.323Z,-5.78
2023-03-06T00:19:16.039Z,-5.78
2023-03-06T00:19:28.646Z,-5.78
2023-03-06T00:19:42.613Z,-5.78
2023-03-06T00:19:56.532Z,-5.76
2023-03-06T00:20:10.978Z,-5.76
2023-03-06T00:20:25.263Z,-5.77
2023-03-06T00:20:40.870Z,-5.76
2023-03-06T00:20:53.509Z,-5.74
2023-03-06T00:21:07.889Z,-5.73
2023-03-06T00:21:20.521Z,-5.72
2023-03-06T00:21:34.098Z,-5.72
2023-03-06T00:21:46.789Z,-5.69
2023-03-06T00:21:59.412Z,-5.69
2023-03-06T00:22:15.013Z,-5.68
2023-03-06T00:22:27.710Z,-5.66
2023-03-06T00:22:40.768Z,-5.66
2023-03-06T00:22:54.372Z,-5.63
2023-03-06T00:23:08.087Z,-5.63
2023-03-06T00:23:20.944Z,-5.62
2023-03-06T00:23:33.845Z,-5.63
2023-03-06T00:23:46.419Z,-5.61
2023-03-06T00:23:59.002Z,-5.60
2023-03-06T00:24:11.595Z,-5.60
2023-03-06T00:24:25.176Z,-5.59
2023-03-06T00:24:37.736Z,-5.59
2023-03-06T00:24:53.677Z,-5.58
2023-03-06T00:25:07.813Z,-5.58
2023-03-06T00:25:21.985Z,-5.58
2023-03-06T00:25:36.844Z,-5.56
2023-03-06T00:25:49.488Z,-5.56
2023-03-06T00:26:03.260Z,-5.57
2023-03-06T00:26:15.872Z,-5.57
2023-03-06T00:26:28.618Z,-5.57
2023-03-06T00:26:41.867Z,-5.58
2023-03-06T00:26:54.611Z,-5.59
2023-03-06T00:27:07.208Z,-5.58
2023-03-06T00:27:20.122Z,-5.58
2023-03-06T00:27:34.241Z,-5.58
2023-03-06T00:27:47.320Z,-5.59
2023-03-06T00:28:00.117Z,-5.57
2023-03-06T00:28:14.906Z,-5.57
2023-03-06T00:28:30.969Z,-5.57
2023-03-06T00:28:43.546Z,-5.56
2023-03-06T00:28:56.172Z,-5.55
2023-03-06T00:29:10.067Z,-5.56
2023-03-06T00:29:22.649Z,-5.56
2023-03-06T00:29:35.720Z,-5.56
2023-03-06T00:29:49.737Z,-5.56
2023-03-06T00:30:02.398Z,-5.56
2023-03-06T00:30:17.210Z,-5.55
2023-03-06T00:30:29.968Z,-5.56
2023-03-06T00:30:43.840Z,-5.57
2023-03-06T00:30:56.690Z,-5.56
2023-03-06T00:31:09.618Z,-5.57
2023-03-06T00:31:22.292Z,-5.56
2023-03-06T00:31:35.994Z,-5.55
2023-03-06T00:31:48.674Z,-5.57
2023-03-06T00:32:02.642Z,-5.57
2023-03-06T00:32:15.512Z,-5.56
2023-03-06T00:32:28.770Z,-5.57
2023-03-06T00:32:41.841Z,-5.56
2023-03-06T00:32:54.679Z,-5.57
2023-03-06T00:33:07.336Z,-5.57
2023-03-06T00:33:20.934Z,-5.58
2023-03-06T00:33:33.538Z,-5.58
2023-03-06T00:33:46.254Z,-5.58
2023-03-06T00:33:58.894Z,-5.59
2023-03-06T00:34:11.467Z,-5.58
2023-03-06T00:34:24.082Z,-5.58
2023-03-06T00:34:36.708Z,-5.57
2023-03-06T00:34:51.415Z,-5.58
2023-03-06T00:35:05.933Z,-5.57
2023-03-06T00:35:18.727Z,-5.58
2023-03-06T00:35:31.855Z,-5.57
2023-03-06T00:35:44.574Z,-5.57
2023-03-06T00:35:57.272Z,-5.57
2023-03-06T00:36:10.360Z,-5.57
2023-03-06T00:36:22.958Z,-5.56
2023-03-06T00:36:35.620Z,-5.57
2023-03-06T00:36:49.268Z,-5.55
2023-03-06T00:37:01.856Z,-5.54
2023-03-06T00:37:14.455Z,-5.55
2023-03-06T00:37:27.270Z,-5.53
2023-03-06T00:37:40.742Z,-5.53
2023-03-06T00:37:53.325Z,-5.54
2023-03-06T00:38:05.988Z,-5.52
2023-03-06T00:38:18.576Z,-5.52
2023-03-06T00:38:33.534Z,-5.53
2023-03-06T00:38:47.145Z,-5.52
2023-03-06T00:38:59.706Z,-5.51
2023-03-06T00:39:12.300Z,-5.51
2023-03-06T00:39:24.909Z,-5.51
2023-03-06T00:39:37.548Z,-5.51
2023-03-06T00:39:50.696Z,-5.50
2023-03-06T00:40:06.334Z,-5.50
2023-03-06T00:40:21.028Z,-5.49
2023-03-06T00:40:33.916Z,-5.49
2023-03-06T00:40:46.523Z,-5.48
2023-03-06T00:40:59.852Z,-5.48
2023-03-06T00:41:13.664Z,-5.50
2023-03-06T00:41:27.175Z,-5.46
2023-03-06T00:41:40.849Z,-5.46
2023-03-06T00:41:53.507Z,-5.46
2023-03-06T00:42:06.534Z,-5.45
2023-03-06T00:42:19.782Z,-5.45
2023-03-06T00:42:32.870Z,-5.44
2023-03-06T00:42:46.227Z,-5.43
2023-03-06T00:42:58.852Z,-5.44
2023-03-06T00:43:12.838Z,-5.44
2023-03-06T00:43:25.561Z,-5.44
2023-03-06T00:43:38.238Z,-5.43
2023-03-06T00:43:50.810Z,-5.43
2023-03-06T00:44:03.504Z,-5.43
2023-03-06T00:44:17.105Z,-5.43
2023-03-06T00:44:29.751Z,-5.44
2023-03-06T00:44:42.831Z,-5.42
2023-03-06T00:44:55.481Z,-5.42
2023-03-06T00:45:09.072Z,-5.42
2023-03-06T00:45:21.974Z,-5.40
2023-03-06T00:45:35.675Z,-5.40
2023-03-06T00:45:48.295Z,-5.40
2023-03-06T00:46:01.234Z,-5.39
2023-03-06T00:46:13.842Z,-5.40
2023-03-06T00:46:26.673Z,-5.38
2023-03-06T00:46:39.289Z,-5.40
2023-03-06T00:46:52.856Z,-5.39
2023-03-06T00:47:05.776Z,-5.38
2023-03-06T00:47:18.505Z,-5.38
2023-03-06T00:47:31.153Z,-5.38
2023-03-06T00:47:43.926Z,-5.38
2023-03-06T00:47:56.537Z,-5.38
2023-03-06T00:48:09.210Z,-5.38
2023-03-06T00:48:22.792Z,-5.39
2023-03-06T00:48:35.470Z,-5.38
2023-03-06T00:48:48.061Z,-5.38
2023-03-06T00:49:00.754Z,-5.38
2023-03-06T00:49:13.348Z,-5.38
2023-03-06T00:49:25.946Z,-5.40
2023-03-06T00:49:38.667Z,-5.40
2023-03-06T00:49:53.652Z,-5.39
2023-03-06T00:50:07.385Z,-5.41
2023-03-06T00:50:20.289Z,-5.41
2023-03-06T00:50:32.909Z,-5.42
2023-03-06T00:50:45.494Z,-5.42
2023-03-06T00:50:58.215Z,-5.42
2023-03-06T00:51:13.783Z,-5.43
2023-03-06T00:51:26.661Z,-5.43
2023-03-06T00:51:40.248Z,-5.43
2023-03-06T00:51:52.828Z,-5.44
2023-03-06T00:52:05.955Z,-5.45
2023-03-06T00:52:18.523Z,-5.45
2023-03-06T00:52:31.121Z,-5.46
2023-03-06T00:52:43.765Z,-5.46
2023-03-06T00:52:56.393Z,-5.47
2023-03-06T00:53:11.120Z,-5.47
2023-03-06T00:53:24.148Z,-5.47
2023-03-06T00:53:37.000Z,-5.49
2023-03-06T00:53:49.618Z,-5.49
2023-03-06T00:54:02.199Z,-5.50
2023-03-06T00:54:14.869Z,-5.50
2023-03-06T00:54:28.467Z,-5.51
2023-03-06T00:54:41.818Z,-5.51
2023-03-06T00:54:54.429Z,-5.51
2023-03-06T00:55:07.985Z,-5.53
2023-03-06T00:55:20.627Z,-5.53
2023-03-06T00:55:33.577Z,-5.54
2023-03-06T00:55:46.500Z,-5.55
2023-03-06T00:55:59.302Z,-5.56
2023-03-06T00:56:12.874Z,-5.56
2023-03-06T00:56:26.137Z,-5.57
2023-03-06T00:56:38.737Z,-5.57
2023-03-06T00:56:51.470Z,-5.57
2023-03-06T00:57:04.312Z,-5.58
2023-03-06T00:57:16.966Z,-5.59
2023-03-06T00:57:30.690Z,-5.59
2023-03-06T00:57:44.455Z,-5.59
2023-03-06T00:57:57.193Z,-5.60
2023-03-06T00:58:09.789Z,-5.61
2023-03-06T00:58:22.413Z,-5.62
2023-03-06T00:58:35.085Z,-5.61
2023-03-06T00:58:47.665Z,-5.62
2023-03-06T00:59:01.231Z,-5.62
2023-03-06T00:59:13.873Z,-5.63
2023-03-06T00:59:27.666Z,-5.63
2023-03-06T00:59:40.483Z,-5.62
2023-03-06T00:59:53.249Z,-5.63
2023-03-06T01:00:08.115Z,-5.63
2023-03-06T01:00:22.013Z,-5.62
2023-03-06T01:00:34.630Z,-5.62
2023-03-06T01:00:47.282Z,-5.62
2023-03-06T01:01:00.356Z,-5.61
2023-03-06T01:01:13.227Z,-5.60
2023-03-06T01:01:25.882Z,-5.60
2023-03-06T01:01:38.469Z,-5.59
2023-03-06T01:01:52.154Z,-5.60
2023-03-06T01:02:05.466Z,-5.60
2023-03-06T01:02:18.313Z,-5.60
2023-03-06T01:02:31.036Z,-5.60
2023-03-06T01:02:43.716Z,-5.62
2023-03-06T01:02:56.379Z,-5.62
2023-03-06T01:03:09.228Z,-5.62
2023-03-06T01:03:22.888Z,-5.62
2023-03-06T01:03:35.594Z,-5.62
2023-03-06T01:03:48.166Z,-5.63
2023-03-06T01:04:00.740Z,-5.63
2023-03-06T01:04:13.414Z,-5.64
2023-03-06T01:04:26.061Z,-5.66
2023-03-06T01:04:38.694Z,-5.66
2023-03-06T01:04:53.702Z,-5.65
2023-03-06T01:05:07.613Z,-5.67
2023-03-06T01:05:20.720Z,-5.67
2023-03-06T01:05:35.391Z,-5.68
2023-03-06T01:05:48.072Z,-5.68
2023-03-06T01:06:00.684Z,-5.69
2023-03-06T01:06:13.318Z,-5.69
2023-03-06T01:06:26.975Z,-5.71
2023-03-06T01:06:39.560Z,-5.72
2023-03-06T01:06:52.196Z,-5.72
2023-03-06T01:07:04.885Z,-5.72
2023-03-06T01:07:17.514Z,-5.72
2023-03-06T01:07:33.396Z,-5.74
2023-03-06T01:07:47.071Z,-5.75
2023-03-06T01:07:59.704Z,-5.75
2023-03-06T01:08:12.333Z,-5.75
2023-03-06T01:08:24.902Z,-5.76
2023-03-06T01:08:37.492Z,-5.76
2023-03-06T01:08:50.363Z,-5.76
2023-03-06T01:09:03.801Z,-5.77
2023-03-06T01:09:17.529Z,-5.79
2023-03-06T01:09:30.096Z,-5.79
2023-03-06T01:09:42.820Z,-5.79
2023-03-06T01:09:55.488Z,-5.80
2023-03-06T01:10:10.060Z,-5.80
2023-03-06T01:10:23.004Z,-5.81
2023-03-06T01:10:38.757Z,-5.82
2023-03-06T01:10:52.405Z,-5.83
2023-03-06T01:11:05.283Z,-5.84
2023-03-06T01:11:17.931Z,-5.84
2023-03-06T01:11:30.723Z,-5.87
2023-03-06T01:11:43.400Z,-5.86
2023-03-06T01:11:56.336Z,-5.87
2023-03-06T01:12:09.903Z,-5.88
2023-03-06T01:12:23.560Z,-5.90
2023-03-06T01:12:37.564Z,-5.90
2023-03-06T01:12:50.267Z,-5.91
2023-03-06T01:13:02.939Z,-5.92
2023-03-06T01:13:15.525Z,-5.93
2023-03-06T01:13:28.286Z,-5.93
2023-03-06T01:13:40.958Z,-5.94
2023-03-06T01:13:53.671Z,-5.95
2023-03-06T01:14:06.642Z,-5.98
2023-03-06T01:14:19.529Z,-5.98
2023-03-06T01:14:33.155Z,-6.00
2023-03-06T01:14:45.804Z,-6.01
2023-03-06T01:14:58.513Z,-6.03
2023-03-06T01:15:13.504Z,-6.04
2023-03-06T01:15:26.153Z,-6.05
2023-03-06T01:15:38.800Z,-6.07
2023-03-06T01:15:51.464Z,-6.07
2023-03-06T01:16:09.933Z,-6.07
2023-03-06T01:16:22.801Z,-6.09
2023-03-06T01:16:35.480Z,-6.10
2023-03-06T01:16:48.680Z,-6.11
2023-03-06T01:17:01.326Z,-6.12
2023-03-06T01:17:14.190Z,-6.13
2023-03-06T01:17:28.075Z,-6.13
2023-03-06T01:17:40.833Z,-6.13
2023-03-06T01:17:54.262Z,-6.15
2023-03-06T01:18:07.865Z,-6.16
2023-03-06T01:18:20.572Z,-6.16
2023-03-06T01:18:33.438Z,-6.17
2023-03-06T01:18:47.410Z,-6.17
2023-03-06T01:19:00.214Z,-6.18
2023-03-06T01:19:13.115Z,-6.19
2023-03-06T01:19:25.853Z,-6.18
2023-03-06T01:19:38.523Z,-6.20
2023-03-06T01:19:52.808Z,-6.21
2023-03-06T01:20:06.898Z,-6.21
2023-03-06T01:20:19.598Z,-6.22
2023-03-06T01:20:32.292Z,-6.23
2023-03-06T01:20:45.943Z,-6.24
2023-03-06T01:20:58.694Z,-6.26
2023-03-06T01:21:11.433Z,-6.25
2023-03-06T01:21:24.642Z,-6.26
2023-03-06T01:21:37.246Z,-6.27
2023-03-06T01:21:49.858Z,-6.27
2023-03-06T01:22:02.480Z,-6.27
2023-03-06T01:22:16.078Z,-6.28
2023-03-06T01:22:28.707Z,-6.29
2023-03-06T01:22:41.363Z,-6.29
2023-03-06T01:22:55.507Z,-6.30
2023-03-06T01:23:08.183Z,-6.31
2023-03-06T01:23:20.780Z,-6.30
2023-03-06T01:23:34.993Z,-6.31
2023-03-06T01:23:47.959Z,-6.32
2023-03-06T01:24:00.575Z,-6.32
2023-03-06T01:24:13.144Z,-6.33
2023-03-06T01:24:25.977Z,-6.33
2023-03-06T01:24:39.180Z,-6.34
2023-03-06T01:24:51.797Z,-6.34
2023-03-06T01:25:04.908Z,-6.36
2023-03-06T01:25:18.790Z,-6.36
2023-03-06T01:25:31.521Z,-6.37
2023-03-06T01:25:44.343Z,-6.38
2023-03-06T01:25:57.066Z,-6.38
2023-03-06T01:26:10.524Z,-6.40
2023-03-06T01:26:24.110Z,-6.40
2023-03-06T01:26:36.836Z,-6.42
2023-03-06T01:26:49.500Z,-6.41
2023-03-06T01:27:02.107Z,-6.42
2023-03-06T01:27:14.806Z,-6.43
2023-03-06T01:27:27.791Z,-6.44
2023-03-06T01:27:40.614Z,-6.43
2023-03-06T01:27:54.324Z,-6.45
2023-03-06T01:28:06.926Z,-6.46
2023-03-06T01:28:19.563Z,-6.46
2023-03-06T01:28:34.088Z,-6.46
2023-03-06T01:28:46.693Z,-6.47
2023-03-06T01:29:00.306Z,-6.49
2023-03-06T01:29:12.911Z,-6.48
2023-03-06T01:29:26.472Z,-6.50
2023-03-06T01:29:39.098Z,-6.51
2023-03-06T01:29:51.721Z,-6.55
2023-03-06T01:30:05.579Z,-6.52
2023-03-06T01:30:18.334Z,-6.52
2023-03-06T01:30:30.923Z,-6.53
2023-03-06T01:30:43.592Z,-6.53
2023-03-06T01:30:57.603Z,-6.54
2023-03-06T01:31:11.349Z,-6.56
2023-03-06T01:31:24.891Z,-6.56
2023-03-06T01:31:37.716Z,-6.56
2023-03-06T01:31:50.483Z,-6.57
2023-03-06T01:32:03.238Z,-6.58
2023-03-06T01:32:15.939Z,-6.58
2023-03-06T01:32:30.742Z,-6.58
2023-03-06T01:32:43.691Z,-6.59
2023-03-06T01:32:56.336Z,-6.60
2023-03-06T01:33:08.917Z,-6.60
2023-03-06T01:33:21.825Z,-6.62
2023-03-06T01:33:36.045Z,-6.61
2023-03-06T01:33:48.659Z,-6.62
2023-03-06T01:34:01.565Z,-6.66
2023-03-06T01:34:14.239Z,-6.65
2023-03-06T01:34:26.867Z,-6.65
2023-03-06T01:34:39.501Z,-6.65
2023-03-06T01:34:54.034Z,-6.67
2023-03-06T01:35:08.445Z,-6.67
2023-03-06T01:35:21.039Z,-6.67
2023-03-06T01:35:33.702Z,-6.69
2023-03-06T01:35:46.587Z,-6.69
2023-03-06T01:35:59.230Z,-6.70
2023-03-06T01:36:13.752Z,-6.71
2023-03-06T01:36:26.390Z,-6.72
2023-03-06T01:36:39.042Z,-6.72
2023-03-06T01:36:51.685Z,-6.72
2023-03-06T01:37:04.315Z,-6.72
2023-03-06T01:37:17.176Z,-6.73
2023-03-06T01:37:29.955Z,-6.74
2023-03-06T01:37:43.619Z,-6.76
2023-03-06T01:37:56.252Z,-6.76
2023-03-06T01:38:09.158Z,-6.75
2023-03-06T01:38:22.113Z,-6.76
2023-03-06T01:38:35.782Z,-6.77
2023-03-06T01:38:48.404Z,-6.78
2023-03-06T01:39:00.982Z,-6.76
2023-03-06T01:39:14.585Z,-6.78
2023-03-06T01:39:28.808Z,-6.77
2023-03-06T01:39:41.445Z,-6.77
2023-03-06T01:39:54.038Z,-6.77
2023-03-06T01:40:08.452Z,-6.77
2023-03-06T01:40:21.382Z,-6.77
2023-03-06T01:40:36.569Z,-6.79
2023-03-06T01:40:49.141Z,-6.78
2023-03-06T01:41:03.588Z,-6.78
2023-03-06T01:41:16.314Z,-6.78
2023-03-06T01:41:28.945Z,-6.79
2023-03-06T01:41:41.621Z,-6.78
2023-03-06T01:41:54.362Z,-6.79
2023-03-06T01:42:07.380Z,-6.79
2023-03-06T01:42:21.220Z,-6.80
2023-03-06T01:42:33.849Z,-6.80
2023-03-06T01:42:49.314Z,-6.81
2023-03-06T01:43:10.554Z,-6.83
2023-03-06T01:43:27.602Z,-6.82
2023-03-06T01:43:44.177Z,-6.84
2023-03-06T01:43:56.790Z,-6.86
2023-03-06T01:44:10.996Z,-6.86
2023-03-06T01:44:23.606Z,-6.89
2023-03-06T01:44:36.227Z,-6.90
2023-03-06T01:44:59.673Z,-6.90
2023-03-06T01:45:50.127Z,-6.91
2023-03-06T01:46:28.388Z,-6.96
2023-03-06T01:46:43.301Z,-6.97
2023-03-06T01:46:55.934Z,-6.97
2023-03-06T01:47:08.530Z,-6.97
2023-03-06T01:47:21.112Z,-6.97
2023-03-06T01:47:33.757Z,-6.98
2023-03-06T01:47:46.394Z,-6.98
2023-03-06T01:47:59.010Z,-7.00
2023-03-06T01:48:11.616Z,-6.99
2023-03-06T01:48:24.937Z,-6.98
2023-03-06T01:48:38.642Z,-7.01
2023-03-06T01:48:55.781Z,-7.02
2023-03-06T01:49:14.357Z,-7.03
2023-03-06T01:49:31.828Z,-7.02
2023-03-06T01:49:44.560Z,-7.05
2023-03-06T01:50:01.499Z,-7.04
2023-03-06T01:50:15.146Z,-7.05
2023-03-06T01:50:28.681Z,-7.06
2023-03-06T01:50:41.623Z,-7.07
2023-03-06T01:50:54.666Z,-7.06
2023-03-06T01:51:07.333Z,-7.08
2023-03-06T01:51:20.115Z,-7.09
2023-03-06T01:51:36.143Z,-7.08
2023-03-06T01:51:52.437Z,-7.09
2023-03-06T01:52:09.352Z,-7.10
2023-03-06T01:52:26.047Z,-7.11
2023-03-06T01:52:43.421Z,-7.12
2023-03-06T01:52:59.872Z,-7.13
2023-03-06T01:53:13.614Z,-7.13
2023-03-06T01:53:26.297Z,-7.13
2023-03-06T01:53:40.321Z,-7.14
2023-03-06T01:53:53.967Z,-7.14
2023-03-06T01:54:12.908Z,-7.14
2023-03-06T01:54:28.540Z,-7.15
2023-03-06T01:54:44.614Z,-7.15
2023-03-06T01:55:02.231Z,-7.16
2023-03-06T01:55:18.160Z,-7.16
2023-03-06T01:55:35.111Z,-7.17
2023-03-06T01:55:48.784Z,-7.18
2023-03-06T01:56:01.431Z,-7.19
2023-03-06T01:56:15.418Z,-7.20
2023-03-06T01:56:29.512Z,-7.21
2023-03-06T01:56:45.427Z,-7.21
2023-03-06T01:57:04.564Z,-7.22
2023-03-06T01:57:20.773Z,-7.23
2023-03-06T01:57:35.401Z,-7.25
2023-03-06T01:57:52.522Z,-7.27
2023-03-06T01:58:08.875Z,-7.27
2023-03-06T01:58:22.573Z,-7.25
2023-03-06T01:58:36.631Z,-7.27
2023-03-06T01:58:51.316Z,-7.27
2023-03-06T01:59:04.679Z,-7.28
2023-03-06T01:59:18.582Z,-7.28
2023-03-06T01:59:36.182Z,-7.30
2023-03-06T01:59:53.163Z,-7.31
2023-03-06T02:00:10.276Z,-7.32
2023-03-06T02:00:25.440Z,-7.32
2023-03-06T02:00:38.245Z,-7.33
2023-03-06T02:00:50.909Z,-7.33
2023-03-06T02:01:04.590Z,-7.33
2023-03-06T02:01:19.252Z,-7.35
2023-03-06T02:01:33.355Z,-7.36
2023-03-06T02:01:47.272Z,-7.37
2023-03-06T02:02:01.920Z,-7.36
2023-03-06T02:02:15.903Z,-7.37
2023-03-06T02:02:28.941Z,-7.38
2023-03-06T02:02:45.423Z,-7.38
2023-03-06T02:03:04.149Z,-7.39
2023-03-06T02:03:21.628Z,-7.38
2023-03-06T02:03:34.261Z,-7.39
2023-03-06T02:03:49.941Z,-7.40
2023-03-06T02:04:02.707Z,-7.39
2023-03-06T02:04:17.371Z,-7.39
2023-03-06T02:04:30.693Z,-7.41
2023-03-06T02:04:44.211Z,-7.40
2023-03-06T02:04:59.786Z,-7.42
2023-03-06T02:05:12.735Z,-7.41
2023-03-06T02:05:25.487Z,-7.42
2023-03-06T02:05:39.861Z,-7.44
2023-03-06T02:05:53.029Z,-7.42
2023-03-06T02:06:07.150Z,-7.42
2023-03-06T02:06:21.903Z,-7.43
2023-03-06T02:06:36.798Z,-7.44
2023-03-06T02:06:49.894Z,-7.45
2023-03-06T02:07:04.876Z,-7.45
2023-03-06T02:07:20.881Z,-7.47
2023-03-06T02:07:34.497Z,-7.47
2023-03-06T02:07:48.156Z,-7.48
2023-03-06T02:08:02.414Z,-7.47
2023-03-06T02:08:18.365Z,-7.46
2023-03-06T02:08:31.816Z,-7.48
2023-03-06T02:08:44.448Z,-7.48
2023-03-06T02:08:58.350Z,-7.49
2023-03-06T02:09:12.833Z,-7.49
2023-03-06T02:09:29.957Z,-7.50
2023-03-06T02:09:42.591Z,-7.49
2023-03-06T02:09:55.310Z,-7.49
2023-03-06T02:10:09.752Z,-7.50
2023-03-06T02:10:22.625Z,-7.51
2023-03-06T02:10:36.345Z,-7.51
2023-03-06T02:10:58.510Z,-7.55
2023-03-06T02:11:13.684Z,-7.56
2023-03-06T02:11:26.377Z,-7.56
2023-03-06T02:11:39.074Z,-7.57
2023-03-06T02:11:51.933Z,-7.56
2023-03-06T02:12:10.423Z,-7.56
2023-03-06T02:12:23.934Z,-7.57
2023-03-06T02:12:37.662Z,-7.57
2023-03-06T02:12:51.594Z,-7.57
2023-03-06T02:13:04.452Z,-7.58
2023-03-06T02:13:17.084Z,-7.58
2023-03-06T02:13:30.195Z,-7.58
2023-03-06T02:13:44.308Z,-7.58
2023-03-06T02:13:58.095Z,-7.58
2023-03-06T02:14:13.296Z,-7.58
2023-03-06T02:14:26.244Z,-7.59
2023-03-06T02:14:40.054Z,-7.58
2023-03-06T02:14:53.142Z,-7.58
2023-03-06T02:15:06.787Z,-7.59
2023-03-06T02:15:22.349Z,-7.59
2023-03-06T02:15:35.145Z,-7.59
2023-03-06T02:15:48.792Z,-7.60
2023-03-06T02:16:02.122Z,-7.60
2023-03-06T02:16:16.828Z,-7.60
2023-03-06T02:16:31.706Z,-7.62
2023-03-06T02:16:44.898Z,-7.62
2023-03-06T02:16:57.930Z,-7.62
2023-03-06T02:17:15.358Z,-7.64
2023-03-06T02:17:28.143Z,-7.64
2023-03-06T02:17:42.995Z,-7.65
2023-03-06T02:17:56.464Z,-7.65
2023-03-06T02:18:09.057Z,-7.66
2023-03-06T02:18:21.757Z,-7.66
2023-03-06T02:18:35.750Z,-7.66
2023-03-06T02:18:49.619Z,-7.68
2023-03-06T02:19:06.319Z,-7.68
2023-03-06T02:19:30.432Z,-7.68
2023-03-06T02:19:52.734Z,-7.71
2023-03-06T02:20:12.529Z,-7.70
2023-03-06T02:20:32.215Z,-7.71
2023-03-06T02:20:49.882Z,-7.71
2023-03-06T02:21:06.163Z,-7.72
2023-03-06T02:21:23.309Z,-7.71
2023-03-06T02:21:37.851Z,-7.72
2023-03-06T02:21:50.797Z,-7.71
2023-03-06T02:22:03.890Z,-7.72
2023-03-06T02:22:17.800Z,-7.70
2023-03-06T02:22:37.868Z,-7.70
2023-03-06T02:22:57.621Z,-7.72
2023-03-06T02:23:14.838Z,-7.72
2023-03-06T02:23:33.760Z,-7.71
2023-03-06T02:24:01.086Z,-7.72
2023-03-06T02:24:23.808Z,-7.72
2023-03-06T02:24:41.431Z,-7.72
2023-03-06T02:25:01.590Z,-7.72
2023-03-06T02:25:26.509Z,-7.71
2023-03-06T02:25:42.042Z,-7.72
2023-03-06T02:25:55.751Z,-7.74
2023-03-06T02:26:10.191Z,-7.74
2023-03-06T02:26:23.690Z,-7.74
2023-03-06T02:26:38.132Z,-7.75
2023-03-06T02:26:52.916Z,-7.76
2023-03-06T02:27:07.478Z,-7.76
2023-03-06T02:27:21.610Z,-7.77
2023-03-06T02:27:34.667Z,-7.78
2023-03-06T02:27:48.085Z,-7.78
2023-03-06T02:28:01.180Z,-7.78
2023-03-06T02:28:15.838Z,-7.79
2023-03-06T02:28:28.482Z,-7.80
2023-03-06T02:28:42.075Z,-7.79
2023-03-06T02:28:54.894Z,-7.80
2023-03-06T02:29:08.420Z,-7.80
2023-03-06T02:29:24.179Z,-7.80
2023-03-06T02:29:36.815Z,-7.81
2023-03-06T02:29:49.713Z,-7.81
2023-03-06T02:30:06.653Z,-7.81
2023-03-06T02:30:20.556Z,-7.81
2023-03-06T02:30:33.943Z,-7.81
2023-03-06T02:30:49.309Z,-7.81
2023-03-06T02:31:02.207Z,-7.81
2023-03-06T02:31:21.621Z,-7.81
2023-03-06T02:31:34.393Z,-7.81
2023-03-06T02:31:48.209Z,-7.82
2023-03-06T02:32:00.970Z,-7.83
2023-03-06T02:32:13.580Z,-7.84
2023-03-06T02:32:26.299Z,-7.84
2023-03-06T02:32:38.968Z,-7.85
2023-03-06T02:32:51.589Z,-7.86
2023-03-06T02:33:04.728Z,-7.85
2023-03-06T02:33:21.002Z,-7.87
2023-03-06T02:33:33.701Z,-7.86
2023-03-06T02:33:46.558Z,-7.87
2023-03-06T02:34:05.073Z,-7.87
2023-03-06T02:34:53.345Z,-7.88
2023-03-06T02:35:08.009Z,-7.88
2023-03-06T02:35:22.209Z,-7.88
2023-03-06T02:35:36.279Z,-7.88
2023-03-06T02:35:52.397Z,-7.89
2023-03-06T02:36:06.597Z,-7.88
2023-03-06T02:36:19.213Z,-7.90
2023-03-06T02:36:33.712Z,-7.88
2023-03-06T02:36:49.373Z,-7.89
2023-03-06T02:37:08.821Z,-7.89
2023-03-06T02:37:22.519Z,-7.91
2023-03-06T02:37:36.255Z,-7.92
2023-03-06T02:37:49.413Z,-7.92
2023-03-06T02:38:08.258Z,-7.93
2023-03-06T02:38:25.980Z,-7.94
2023-03-06T02:38:44.625Z,-7.95
2023-03-06T02:38:58.759Z,-7.95
2023-03-06T02:39:13.619Z,-7.96
2023-03-06T02:39:28.470Z,-7.97
2023-03-06T02:39:45.138Z,-7.97
2023-03-06T02:40:09.238Z,-8.01
2023-03-06T02:40:23.626Z,-8.00
2023-03-06T02:40:36.838Z,-7.99
2023-03-06T02:40:51.842Z,-8.00
2023-03-06T02:41:07.659Z,-8.00
2023-03-06T02:41:20.294Z,-8.00
2023-03-06T02:41:34.189Z,-8.00
2023-03-06T02:41:46.900Z,-8.01
2023-03-06T02:41:59.560Z,-8.01
2023-03-06T02:42:18.159Z,-8.01
2023-03-06T02:42:30.799Z,-8.01
2023-03-06T02:42:46.639Z,-8.00
2023-03-06T02:42:59.846Z,-8.01
2023-03-06T02:43:17.975Z,-8.00
2023-03-06T02:43:35.595Z,-8.00
2023-03-06T02:43:50.630Z,-8.00
2023-03-06T02:44:03.300Z,-7.99
2023-03-06T02:44:16.095Z,-8.00
2023-03-06T02:44:29.536Z,-8.00
2023-03-06T02:44:42.250Z,-8.00
2023-03-06T02:44:58.413Z,-8.01
2023-03-06T02:45:15.029Z,-8.00
2023-03-06T02:45:33.911Z,-8.01
2023-03-06T02:45:48.932Z,-8.01
2023-03-06T02:46:01.927Z,-8.02
2023-03-06T02:46:14.591Z,-8.03
2023-03-06T02:46:28.285Z,-8.04
2023-03-06T02:46:41.074Z,-8.03
2023-03-06T02:46:53.730Z,-8.03
2023-03-06T02:47:07.841Z,-8.04
2023-03-06T02:47:20.672Z,-8.04
2023-03-06T02:47:33.322Z,-8.05
2023-03-06T02:47:45.987Z,-8.04
2023-03-06T02:47:59.640Z,-8.06
2023-03-06T02:48:13.000Z,-8.06
2023-03-06T02:48:25.634Z,-8.07
2023-03-06T02:48:38.427Z,-8.06
2023-03-06T02:48:51.186Z,-8.07
2023-03-06T02:49:03.791Z,-8.07
2023-03-06T02:49:16.696Z,-8.08
2023-03-06T02:49:29.330Z,-8.08
2023-03-06T02:49:41.932Z,-8.09
2023-03-06T02:49:55.631Z,-8.10
2023-03-06T02:50:09.302Z,-8.09
2023-03-06T02:50:21.984Z,-8.10
2023-03-06T02:50:34.645Z,-8.11
2023-03-06T02:50:48.672Z,-8.11
2023-03-06T02:51:01.637Z,-8.13
2023-03-06T02:51:14.344Z,-8.11
2023-03-06T02:51:28.074Z,-8.12
2023-03-06T02:51:40.694Z,-8.12
2023-03-06T02:51:53.289Z,-8.12
2023-03-06T02:52:07.610Z,-8.12
2023-03-06T02:52:20.286Z,-8.12
2023-03-06T02:52:33.497Z,-8.13
2023-03-06T02:52:46.077Z,-8.12
2023-03-06T02:52:58.861Z,-8.13
2023-03-06T02:53:15.195Z,-8.14
2023-03-06T02:53:27.816Z,-8.14
2023-03-06T02:53:40.562Z,-8.13
2023-03-06T02:53:53.561Z,-8.13
2023-03-06T02:54:06.498Z,-8.14
2023-03-06T02:54:19.144Z,-8.13
2023-03-06T02:54:31.764Z,-8.13
2023-03-06T02:54:44.398Z,-8.14
2023-03-06T02:54:57.998Z,-8.13
2023-03-06T02:55:11.076Z,-8.14
2023-03-06T02:55:25.307Z,-8.13
2023-03-06T02:55:38.789Z,-8.14
2023-03-06T02:55:51.430Z,-8.13
2023-03-06T02:56:04.103Z,-8.13
2023-03-06T02:56:19.276Z,-8.12
2023-03-06T02:56:32.065Z,-8.13
2023-03-06T02:56:45.198Z,-8.15
2023-03-06T02:56:57.851Z,-8.14
2023-03-06T02:57:10.606Z,-8.15
2023-03-06T02:57:23.215Z,-8.14
2023-03-06T02:57:35.821Z,-8.15
2023-03-06T02:57:48.533Z,-8.14
2023-03-06T02:58:02.505Z,-8.16
2023-03-06T02:58:15.162Z,-8.15
2023-03-06T02:58:27.878Z,-8.15
2023-03-06T02:58:40.475Z,-8.15
2023-03-06T02:58:53.127Z,-8.15
2023-03-06T02:59:05.775Z,-8.15